メインページ
METAR-TAF:

METAR-TAF

空港 :

ロンドン・ヒースロー空港, イングランド

緯度: 51-29N, 経度: 000-27W, 海抜: 24m

現時点の気象観測

当レポートは25分前の09:20(UTC)に作成
東/北東の風 11kt
気温 10°C
湿度 62%
気圧 1031 hPa
視程10km以上

METAR: EGLL 250920Z AUTO 06011KT 9999 NCD 10/03 Q1031 NOSIG

時間: 09:45 (09:45 UTC)

予報

当レポートは4時間44分前の05:01(UTC)に作成
予報は25日の 06時(UTC)から 26日の 12時(UTC)まで有効
北東の風 10kt
視程10km以上
1,500メートル以下は雲なし、積乱雲なし
確率 30%
25日の 06時(UTC)から 25日の 08時(UTC)まで
視程: 8000m
確率 40% :
25日の 11時(UTC)から 25日の 19時(UTC)まで一時的に
東/北東の風 16kt、最大28ktの突風を伴う
確率 30%
26日の 03時(UTC)から 26日の 07時(UTC)まで
視程: 8000m
26日の 10時(UTC)から 26日の 12時(UTC)まで一時的に
の風 15kt、最大25ktの突風を伴う

TAF: EGLL 250501Z 2506/2612 05010KT CAVOK PROB30 2506/2508 8000 PROB40 TEMPO 2511/2519 06016G28KT PROB30 2603/2607 8000 TEMPO 2610/2612 08015G25KT

4,000以上の空港の気象観測と天気予報(METAR報とTAF報)

利用可能な観測所は地図上に黄色い丸と赤い丸で示す。

丸の上にカーソルを重ねると観測所名を参照できる。

次にクリックすると気象観測と天気予報を参照できる。

マップの切り替え:黒色「×」印の緑ボタンをクリックして拡大、「-」印の緑ボタンをクリックして縮小、緑色の三角印をクリックして隣りの地図に切り替え


METAR-TAF: